This is the latest recevied weather packets stored in our database for station/object F6ZBX-10. If no packets are shown the sender has not sent any weather packets the latest 10 day(s).
| Time | Temp. | Humidity | Pressure | Rain* | Wind** | Luminosity | Snow |
|---|---|---|---|---|---|---|---|
| 1788610871 | 27.22° C | 45% | 1024 hPa | - | - | - | - |
| 1788609972 | 27.22° C | 47% | 1024.2 hPa | - | - | - | - |
| 1788609072 | 26.67° C | 49% | 1024.4 hPa | - | - | - | - |
| 1788608172 | 26.67° C | 51% | 1024.5 hPa | - | - | - | - |
| 1788607272 | 26.67° C | 50% | 1024.6 hPa | - | - | - | - |
| 1788606372 | 26.67° C | 55% | 1025 hPa | - | - | - | - |
| 1788605472 | 26.67° C | 55% | 1025.4 hPa | - | - | - | - |
| 1788603672 | 25.56° C | 60% | 1025.9 hPa | - | - | - | - |
| 1788602772 | 26.11° C | 56% | 1025.9 hPa | - | - | - | - |
| 1788601872 | 26.11° C | 57% | 1026.1 hPa | - | - | - | - |
| 1788600972 | 26.11° C | 58% | 1026 hPa | - | - | - | - |
| 1788600072 | 26.11° C | 58% | 1026.2 hPa | - | - | - | - |
| 1788599172 | 26.11° C | 58% | 1026.2 hPa | - | - | - | - |
| 1788598272 | 26.11° C | 59% | 1026.1 hPa | - | - | - | - |
| 1788597372 | 26.11° C | 58% | 1026.2 hPa | - | - | - | - |
| 1788595572 | 26.11° C | 58% | 1025.9 hPa | - | - | - | - |
| 1788594672 | 25.56° C | 58% | 1025.9 hPa | - | - | - | - |
| 1788593772 | 26.11° C | 58% | 1025.9 hPa | - | - | - | - |
| 1788592872 | 26.11° C | 57% | 1025.9 hPa | - | - | - | - |
| 1788591972 | 26.11° C | 57% | 1025.7 hPa | - | - | - | - |
| 1788591072 | 25.56° C | 59% | 1025.4 hPa | - | - | - | - |
| 1788590175 | 25.56° C | 60% | 1025.6 hPa | - | - | - | - |
| 1788589272 | 23.89° C | 67% | 1025.5 hPa | - | - | - | - |
| 1788588373 | 22.22° C | 68% | 1023 hPa | - | - | - | - |
| 1788587471 | 24.44° C | 65% | 1025.4 hPa | - | - | - | - |
* Rain since midnight (hover to see other rain measurements)
** Current wind speed in m/s (hover to see current wind gust speed)